Time;durP1;ratioP1;P1;durP2;ratioP2;P2;SDS_P1;SDS_P2;PMS_P1;PMS_P2;Temp;Humidity;BMP_temperature;BMP_pressure;BME280_temperature;BME280_humidity;BME280_pressure;Samples;Min_cycle;Max_cycle;Signal;HPM_P1;HPM_P2
2023/10/20 00:01:50;;;;;;;16.50;12.23;;;7.70;99.90;;;;;;5054124;28;20231;-89
2023/10/20 00:04:16;;;;;;;16.73;11.70;;;7.70;99.90;;;;;;5054456;28;20223;-85
2023/10/20 00:06:42;;;;;;;17.30;11.80;;;7.70;99.90;;;;;;5054273;28;20182;-87
2023/10/20 00:09:14;;;;;;;16.30;12.20;;;7.70;99.90;;;;;;5054431;28;20185;-89
2023/10/20 00:11:43;;;;;;;16.63;11.90;;;7.70;99.90;;;;;;5054129;28;20177;-87
2023/10/20 00:14:09;;;;;;;15.53;11.90;;;7.70;99.90;;;;;;5054460;28;20182;-87
2023/10/20 00:16:35;;;;;;;17.23;12.20;;;7.70;99.90;;;;;;5054057;28;20182;-88
2023/10/20 00:19:02;;;;;;;16.93;11.67;;;7.70;99.90;;;;;;5054138;28;20178;-89
2023/10/20 00:21:29;;;;;;;16.20;10.87;;;7.70;99.90;;;;;;5054207;28;20200;-88
2023/10/20 00:23:55;;;;;;;15.93;10.93;;;7.70;99.90;;;;;;5054001;28;20193;-86
2023/10/20 00:26:21;;;;;;;15.43;10.90;;;7.70;99.90;;;;;;5053776;28;20237;-88
2023/10/20 00:28:57;;;;;;;15.20;11.07;;;7.60;99.90;;;;;;5053800;28;20166;-89
2023/10/20 00:31:23;;;;;;;14.23;10.77;;;7.70;99.90;;;;;;5054868;28;20189;-89
2023/10/20 00:33:50;;;;;;;13.07;10.03;;;7.60;99.90;;;;;;5053909;28;20178;-88
2023/10/20 00:36:17;;;;;;;14.30;10.10;;;7.70;99.90;;;;;;5053822;28;20174;-85
2023/10/20 00:38:47;;;;;;;15.57;10.63;;;7.70;99.90;;;;;;5053670;28;20182;-87
2023/10/20 00:41:13;;;;;;;14.77;10.70;;;7.70;99.90;;;;;;5053699;28;20670;-87
2023/10/20 00:43:39;;;;;;;12.90;10.57;;;7.70;99.90;;;;;;5053676;28;20182;-90
2023/10/20 00:46:07;;;;;;;13.60;10.53;;;7.70;99.90;;;;;;5053738;28;20225;-89
2023/10/20 00:48:35;;;;;;;15.00;10.23;;;7.70;99.90;;;;;;5055167;28;20174;-89
2023/10/20 00:51:01;;;;;;;12.27;10.20;;;7.70;99.90;;;;;;5055025;28;20178;-88
2023/10/20 00:53:29;;;;;;;13.20;9.20;;;7.70;99.90;;;;;;5053744;28;20182;-89
2023/10/20 00:55:58;;;;;;;13.90;9.60;;;7.70;99.90;;;;;;5054986;28;20226;-88
2023/10/20 00:58:28;;;;;;;14.50;9.73;;;7.70;99.90;;;;;;5053538;28;20601;-89
2023/10/20 01:00:54;;;;;;;12.77;9.57;;;7.70;99.90;;;;;;5053818;28;20200;-85
2023/10/20 01:03:20;;;;;;;13.23;9.83;;;7.70;99.90;;;;;;5057421;28;20574;-86
2023/10/20 01:05:47;;;;;;;12.97;9.70;;;7.70;99.90;;;;;;5058489;28;20666;-89
2023/10/20 01:08:14;;;;;;;17.80;10.13;;;7.60;99.90;;;;;;5057486;28;20182;-88
2023/10/20 01:10:43;;;;;;;13.37;10.20;;;7.70;99.90;;;;;;5057469;28;20615;-87
2023/10/20 01:13:09;;;;;;;14.07;9.37;;;7.60;99.90;;;;;;5057265;28;20196;-88
2023/10/20 01:15:37;;;;;;;14.77;9.50;;;7.60;99.90;;;;;;5057543;28;20692;-85
2023/10/20 01:18:03;;;;;;;12.33;9.60;;;7.70;99.90;;;;;;5057390;28;20182;-87
2023/10/20 01:20:30;;;;;;;16.70;9.90;;;7.70;99.90;;;;;;5057340;28;20720;-88
2023/10/20 01:22:59;;;;;;;16.10;10.50;;;7.70;99.90;;;;;;5058807;28;20203;-89
2023/10/20 01:25:26;;;;;;;15.20;10.20;;;7.60;99.90;;;;;;5057086;28;20220;-87
2023/10/20 01:27:52;;;;;;;15.80;10.10;;;7.60;99.90;;;;;;5056567;28;20270;-87
2023/10/20 01:30:29;;;;;;;17.97;10.43;;;7.60;99.90;;;;;;5057210;28;20181;-87
2023/10/20 01:32:55;;;;;;;17.53;10.57;;;7.60;99.90;;;;;;5058210;28;20201;-87
2023/10/20 01:35:20;;;;;;;12.23;10.23;;;7.60;99.90;;;;;;5057046;28;20623;-87
2023/10/20 01:37:46;;;;;;;14.67;10.33;;;7.60;99.90;;;;;;5057917;28;20180;-85
2023/10/20 01:40:13;;;;;;;17.00;10.27;;;7.60;99.90;;;;;;5057948;28;20509;-88
2023/10/20 01:42:40;;;;;;;15.77;10.07;;;7.60;99.90;;;;;;5056544;28;20661;-89
2023/10/20 01:45:06;;;;;;;14.20;10.13;;;7.60;99.90;;;;;;5056701;28;20224;-87
2023/10/20 01:47:32;;;;;;;17.23;10.03;;;7.50;99.90;;;;;;5056871;28;20197;-86
2023/10/20 01:49:58;;;;;;;17.53;10.13;;;7.50;99.90;;;;;;5058059;28;20166;-85
2023/10/20 01:52:23;;;;;;;16.23;10.70;;;7.50;99.90;;;;;;5056520;28;20182;-87
2023/10/20 01:54:49;;;;;;;14.27;9.87;;;7.60;99.90;;;;;;5058320;28;20208;-86
2023/10/20 01:57:15;;;;;;;19.53;10.63;;;7.50;99.90;;;;;;5487498;22;20234;-86
2023/10/20 01:59:41;;;;;;;14.30;9.73;;;7.50;99.90;;;;;;5017054;28;20183;-85
2023/10/20 02:02:07;;;;;;;20.10;10.97;;;7.50;99.90;;;;;;5017067;28;20210;-86
2023/10/20 02:04:33;;;;;;;14.00;9.60;;;7.50;99.90;;;;;;5016798;28;20543;-85
2023/10/20 02:06:58;;;;;;;18.07;10.73;;;7.50;99.90;;;;;;5016993;28;20175;-85
2023/10/20 02:09:25;;;;;;;14.43;9.90;;;7.50;99.90;;;;;;5016901;28;20206;-85
2023/10/20 02:11:58;;;;;;;18.57;10.63;;;7.50;99.90;;;;;;5016763;28;20172;-88
2023/10/20 02:14:24;;;;;;;21.10;10.90;;;7.50;99.90;;;;;;5016650;28;20668;-86
2023/10/20 02:16:53;;;;;;;20.23;10.73;;;7.40;99.90;;;;;;5016840;28;20187;-86
2023/10/20 02:19:26;;;;;;;17.43;10.50;;;7.40;99.90;;;;;;5033099;28;20194;-88
2023/10/20 02:21:52;;;;;;;18.90;11.93;;;7.40;99.90;;;;;;5033143;28;20177;-85
2023/10/20 02:24:17;;;;;;;17.60;11.47;;;7.40;99.90;;;;;;5016377;28;20269;-85
2023/10/20 02:26:45;;;;;;;18.53;11.23;;;7.40;99.90;;;;;;5016464;28;20272;-89
2023/10/20 02:29:12;;;;;;;26.13;12.23;;;7.40;99.90;;;;;;5016265;28;20290;-83
2023/10/20 02:31:37;;;;;;;21.80;11.30;;;7.40;99.90;;;;;;5017557;28;20179;-89
2023/10/20 02:34:03;;;;;;;19.70;11.57;;;7.40;99.90;;;;;;5016412;28;20190;-87
2023/10/20 02:36:30;;;;;;;18.37;11.87;;;7.40;99.90;;;;;;5016401;28;20187;-86
2023/10/20 02:38:56;;;;;;;21.43;11.87;;;7.40;99.90;;;;;;5016458;28;20207;-85
2023/10/20 02:41:22;;;;;;;20.43;12.67;;;7.40;99.90;;;;;;5016383;28;20163;-87
2023/10/20 02:43:48;;;;;;;22.23;12.20;;;7.40;99.90;;;;;;5015898;28;20237;-84
2023/10/20 02:46:13;;;;;;;20.73;12.17;;;7.40;99.90;;;;;;5016170;28;20215;-85
2023/10/20 02:48:41;;;;;;;21.57;12.20;;;7.40;99.90;;;;;;5016209;28;20179;-89
2023/10/20 02:51:09;;;;;;;20.47;11.90;;;7.40;99.90;;;;;;5016030;28;20207;-87
2023/10/20 02:53:35;;;;;;;19.97;11.73;;;7.40;99.90;;;;;;5015985;28;20515;-88
2023/10/20 02:56:01;;;;;;;22.93;12.27;;;7.40;99.90;;;;;;5015923;28;20194;-91
2023/10/20 02:58:29;;;;;;;19.97;11.60;;;7.40;99.90;;;;;;5015487;28;20238;-87
2023/10/20 03:00:55;;;;;;;20.10;12.90;;;7.40;99.90;;;;;;5017031;28;20539;-83
2023/10/20 03:03:21;;;;;;;21.07;12.37;;;7.30;99.90;;;;;;5015773;28;20546;-87
2023/10/20 03:05:48;;;;;;;22.47;13.17;;;7.40;99.90;;;;;;5016961;28;20221;-86
2023/10/20 03:08:14;;;;;;;21.03;12.77;;;7.40;99.90;;;;;;5015651;28;20267;-86
2023/10/20 03:10:40;;;;;;;20.27;12.37;;;7.30;99.90;;;;;;5016028;28;20210;-88
2023/10/20 03:13:05;;;;;;;22.33;13.10;;;7.40;99.90;;;;;;5015608;28;20622;-88
2023/10/20 03:15:32;;;;;;;21.97;13.47;;;7.30;99.90;;;;;;5017128;28;20625;-87
2023/10/20 03:18:01;;;;;;;24.67;14.33;;;7.30;99.90;;;;;;5016641;28;20210;-84
2023/10/20 03:20:36;;;;;;;24.17;14.13;;;7.30;99.90;;;;;;5015609;28;20205;-86
2023/10/20 03:23:03;;;;;;;28.17;13.97;;;7.30;99.90;;;;;;5015615;28;20622;-87
2023/10/20 03:25:33;;;;;;;23.23;14.47;;;7.30;99.90;;;;;;5014897;28;20281;-87
2023/10/20 03:27:58;;;;;;;24.90;14.57;;;7.30;99.90;;;;;;5015595;28;20517;-85
2023/10/20 03:30:27;;;;;;;20.87;13.77;;;7.30;99.90;;;;;;5015683;28;20234;-86
2023/10/20 03:32:53;;;;;;;25.00;14.00;;;7.30;99.90;;;;;;5015513;28;20183;-85
2023/10/20 03:35:19;;;;;;;24.83;14.37;;;7.30;99.90;;;;;;5032095;28;20228;-88
2023/10/20 03:37:45;;;;;;;23.37;14.70;;;7.30;99.90;;;;;;5016472;28;20610;-84
2023/10/20 03:40:16;;;;;;;28.07;15.57;;;7.30;99.90;;;;;;5015116;28;20525;-86
2023/10/20 03:42:43;;;;;;;22.90;15.10;;;7.30;99.90;;;;;;5015056;28;20261;-86
2023/10/20 03:45:10;;;;;;;28.03;16.17;;;7.30;99.90;;;;;;5014885;28;20210;-84
2023/10/20 03:47:39;;;;;;;25.17;15.33;;;7.30;99.90;;;;;;5015039;28;20183;-86
2023/10/20 03:50:14;;;;;;;25.90;14.87;;;7.30;99.90;;;;;;5014981;28;20175;-83
2023/10/20 03:52:41;;;;;;;25.47;16.20;;;7.30;99.90;;;;;;5015014;28;20175;-86
2023/10/20 03:55:13;;;;;;;27.57;16.40;;;7.20;99.90;;;;;;5015065;28;20179;-91
2023/10/20 03:57:42;;;;;;;27.07;15.33;;;7.30;99.90;;;;;;5014538;28;20230;-89
2023/10/20 04:00:17;;;;;;;24.90;15.87;;;7.30;99.90;;;;;;5014791;28;20179;-85
2023/10/20 04:02:46;;;;;;;26.87;15.37;;;7.30;99.90;;;;;;5014904;28;20170;-83
2023/10/20 04:05:16;;;;;;;28.47;16.50;;;7.30;99.90;;;;;;5014895;28;20641;-92
2023/10/20 04:07:42;;;;;;;24.47;16.20;;;7.20;99.90;;;;;;5014756;28;20202;-87
2023/10/20 04:10:20;;;;;;;24.60;15.80;;;7.30;99.90;;;;;;5014749;28;20202;-87
2023/10/20 04:12:47;;;;;;;24.67;15.67;;;7.30;99.90;;;;;;5014395;28;20183;-85
2023/10/20 04:15:17;;;;;;;21.77;15.70;;;7.30;99.90;;;;;;5014613;28;20183;-84
2023/10/20 04:17:52;;;;;;;27.33;15.80;;;7.30;99.90;;;;;;5014783;28;20238;-86
2023/10/20 04:20:23;;;;;;;25.00;15.73;;;7.20;99.90;;;;;;5016002;28;20242;-87
2023/10/20 04:22:49;;;;;;;24.20;16.27;;;7.30;99.90;;;;;;5014627;28;20266;-88
2023/10/20 04:25:23;;;;;;;24.00;16.23;;;7.30;99.90;;;;;;5015844;28;20798;-87
2023/10/20 04:28:01;;;;;;;23.30;15.03;;;7.30;99.90;;;;;;5053018;28;20260;-89
2023/10/20 04:54:35;;;;;;;20.63;14.10;;;7.20;99.90;;;;;;5039821;28;20213;-86
2023/10/20 04:59:54;;;;;;;20.30;13.37;;;7.30;99.90;;;;;;5019402;28;20170;-87
2023/10/20 05:02:34;;;;;;;18.33;13.23;;;7.20;99.90;;;;;;5034727;28;20185;-88
2023/10/20 05:05:06;;;;;;;20.47;14.20;;;7.20;99.90;;;;;;5037682;28;20214;-88
2023/10/20 05:07:32;;;;;;;19.57;13.67;;;7.30;99.90;;;;;;5037957;28;20265;-88
2023/10/20 05:09:59;;;;;;;21.37;12.87;;;7.30;99.90;;;;;;5037834;28;20217;-83
2023/10/20 05:12:25;;;;;;;22.60;14.30;;;7.30;99.90;;;;;;5037721;28;20290;-87
2023/10/20 05:14:51;;;;;;;19.67;13.83;;;7.30;99.90;;;;;;5037522;28;20617;-85
2023/10/20 05:17:18;;;;;;;21.23;13.80;;;7.20;99.90;;;;;;5037574;28;20359;-86
2023/10/20 05:19:53;;;;;;;21.50;13.53;;;7.20;99.90;;;;;;5037506;28;20182;-87
2023/10/20 05:22:19;;;;;;;22.70;14.33;;;7.20;99.90;;;;;;5037649;28;20174;-84
2023/10/20 05:24:44;;;;;;;18.43;13.77;;;7.20;99.90;;;;;;5037227;28;20221;-87
2023/10/20 05:27:12;;;;;;;20.43;13.87;;;7.30;99.90;;;;;;5037290;28;20601;-89
2023/10/20 05:29:39;;;;;;;19.83;13.50;;;7.30;99.90;;;;;;5028431;28;20210;-85
2023/10/20 05:32:06;;;;;;;18.00;13.23;;;7.30;99.90;;;;;;5037240;28;20197;-84
2023/10/20 05:34:32;;;;;;;21.10;13.67;;;7.20;99.90;;;;;;5037271;28;20270;-86
2023/10/20 05:36:57;;;;;;;18.40;13.33;;;7.20;99.90;;;;;;5037027;28;20267;-89
2023/10/20 05:39:23;;;;;;;20.93;13.87;;;7.20;99.90;;;;;;5037110;28;20189;-89
2023/10/20 05:41:49;;;;;;;17.77;12.10;;;7.30;99.90;;;;;;5037161;28;20189;-84
2023/10/20 05:44:17;;;;;;;19.13;12.70;;;7.30;99.90;;;;;;5036746;28;20206;-85
2023/10/20 05:46:43;;;;;;;19.10;12.20;;;7.30;99.90;;;;;;5036484;28;20233;-88
2023/10/20 05:49:08;;;;;;;19.40;12.13;;;7.30;99.90;;;;;;5038032;28;20167;-83
2023/10/20 05:51:39;;;;;;;18.10;11.17;;;7.30;99.90;;;;;;5036918;28;20209;-85
2023/10/20 05:54:04;;;;;;;17.60;11.67;;;7.30;99.90;;;;;;5036957;28;20274;-86
2023/10/20 05:56:30;;;;;;;16.97;11.47;;;7.30;99.90;;;;;;5037894;28;20309;-85
2023/10/20 05:58:56;;;;;;;15.27;11.33;;;7.30;99.90;;;;;;5037476;28;20254;-82
2023/10/20 06:01:22;;;;;;;18.20;11.60;;;7.30;99.90;;;;;;5036797;28;20236;-85
2023/10/20 06:03:47;;;;;;;17.63;10.57;;;7.30;99.90;;;;;;5036654;28;20179;-83
2023/10/20 06:06:13;;;;;;;15.73;10.60;;;7.30;99.90;;;;;;5036030;28;20644;-87
2023/10/20 06:08:39;;;;;;;15.97;10.37;;;7.30;99.90;;;;;;5036640;28;20229;-86
2023/10/20 06:11:08;;;;;;;15.03;10.17;;;7.30;99.90;;;;;;5036687;28;20568;-85
2023/10/20 06:13:35;;;;;;;16.17;9.77;;;7.30;99.90;;;;;;5036317;28;20207;-84
2023/10/20 06:16:11;;;;;;;12.67;8.30;;;7.40;99.90;;;;;;5036788;28;20186;-87
2023/10/20 06:18:38;;;;;;;11.27;8.30;;;7.40;99.90;;;;;;5036440;28;20171;-85
2023/10/20 06:21:06;;;;;;;10.80;8.00;;;7.40;99.90;;;;;;5036293;28;20186;-86
2023/10/20 06:23:32;;;;;;;14.77;8.43;;;7.40;99.90;;;;;;5036224;28;20262;-85
2023/10/20 06:25:58;;;;;;;11.67;7.50;;;7.40;99.90;;;;;;5036173;28;20256;-84
2023/10/20 06:28:24;;;;;;;11.87;7.03;;;7.40;99.90;;;;;;5036248;28;20609;-85
2023/10/20 06:36:46;;;;;;;11.47;6.27;;;7.40;99.90;;;;;;5037285;28;20165;-86
2023/10/20 06:39:18;;;;;;;9.20;5.70;;;7.40;99.90;;;;;;5035992;28;20182;-87
2023/10/20 06:41:51;;;;;;;6.93;5.40;;;7.40;99.90;;;;;;5036009;28;20541;-87
2023/10/20 06:44:17;;;;;;;8.80;6.20;;;7.40;99.90;;;;;;5036476;28;20232;-83
2023/10/20 06:46:42;;;;;;;7.43;5.40;;;7.40;99.90;;;;;;5035830;28;20222;-88
2023/10/20 06:49:08;;;;;;;9.43;5.20;;;7.40;99.90;;;;;;5035827;28;20179;-86
2023/10/20 06:51:37;;;;;;;6.50;4.90;;;7.40;99.90;;;;;;5035357;28;20640;-86
2023/10/20 06:54:03;;;;;;;8.90;5.10;;;7.40;99.90;;;;;;5035736;28;20195;-86
2023/10/20 06:56:28;;;;;;;7.97;5.13;;;7.40;99.90;;;;;;5035615;28;20186;-86
2023/10/20 06:58:54;;;;;;;7.57;5.20;;;7.40;99.90;;;;;;5034580;28;20254;-87
2023/10/20 07:01:20;;;;;;;7.60;4.40;;;7.40;99.90;;;;;;5052524;28;20566;-85
2023/10/20 07:03:46;;;;;;;7.30;3.83;;;7.40;99.90;;;;;;5037191;28;20174;-84
2023/10/20 07:06:12;;;;;;;6.77;4.53;;;7.40;99.90;;;;;;5052286;28;20226;-84
2023/10/20 07:08:39;;;;;;;9.00;4.90;;;7.30;99.90;;;;;;5052232;28;20328;-89
2023/10/20 07:11:10;;;;;;;7.53;5.10;;;7.30;99.90;;;;;;5052125;28;20626;-92
2023/10/20 07:13:37;;;;;;;8.87;5.00;;;7.40;99.90;;;;;;5051513;28;20187;-88
2023/10/20 07:16:03;;;;;;;8.17;4.60;;;7.30;99.90;;;;;;5051764;28;20620;-89
2023/10/20 07:18:28;;;;;;;6.40;4.07;;;7.30;99.90;;;;;;5036522;28;20171;-87
2023/10/20 07:21:05;;;;;;;6.47;3.80;;;7.40;99.90;;;;;;5051978;28;20517;-85
2023/10/20 07:23:34;;;;;;;4.30;3.43;;;7.30;99.90;;;;;;5052013;28;20208;-88
2023/10/20 07:26:00;;;;;;;5.63;3.53;;;7.30;99.90;;;;;;5051855;28;20210;-84
2023/10/20 07:28:26;;;;;;;6.50;4.00;;;7.30;99.90;;;;;;5051514;28;20193;-88
2023/10/20 07:30:53;;;;;;;4.87;3.47;;;7.30;99.90;;;;;;5051616;28;20621;-87
2023/10/20 07:33:20;;;;;;;5.00;3.60;;;7.30;99.90;;;;;;5051712;28;20597;-84
2023/10/20 07:35:45;;;;;;;6.37;3.80;;;7.30;99.90;;;;;;5051858;28;20558;-85
2023/10/20 07:38:15;;;;;;;5.43;3.40;;;7.30;99.90;;;;;;5036160;28;20174;-84
2023/10/20 07:40:40;;;;;;;4.97;3.20;;;7.30;99.90;;;;;;5036097;28;20504;-85
2023/10/20 07:43:06;;;;;;;6.47;3.50;;;7.30;99.90;;;;;;5051198;28;20175;-83
2023/10/20 07:45:43;;;;;;;6.27;3.60;;;7.20;99.90;;;;;;5051227;28;20214;-90
2023/10/20 07:48:10;;;;;;;6.80;3.53;;;7.30;99.90;;;;;;5035146;28;20281;-84
2023/10/20 07:50:36;;;;;;;5.47;3.57;;;7.20;99.90;;;;;;5034725;28;20287;-84
2023/10/20 07:53:03;;;;;;;4.37;3.00;;;7.20;99.90;;;;;;5034725;28;20194;-86
2023/10/20 07:55:29;;;;;;;4.83;3.00;;;7.20;99.90;;;;;;5034658;28;20184;-87
2023/10/20 07:57:55;;;;;;;4.90;2.87;;;7.20;99.90;;;;;;5034471;28;20310;-86
2023/10/20 08:00:21;;;;;;;5.67;3.53;;;7.20;99.90;;;;;;5034578;28;20182;-85
2023/10/20 08:02:49;;;;;;;7.80;3.27;;;7.20;99.90;;;;;;5034562;28;20668;-85
2023/10/20 08:05:15;;;;;;;4.97;3.03;;;7.20;99.90;;;;;;5034518;28;20264;-86
2023/10/20 08:07:42;;;;;;;4.23;3.30;;;7.20;99.90;;;;;;5034302;28;20179;-85
2023/10/20 08:10:08;;;;;;;4.73;3.07;;;7.20;99.90;;;;;;5034176;28;20186;-84
2023/10/20 08:12:36;;;;;;;5.27;3.27;;;7.10;99.90;;;;;;5034382;28;20175;-83
2023/10/20 08:15:03;;;;;;;4.17;2.90;;;7.10;99.90;;;;;;5034075;28;20249;-84
2023/10/20 08:17:28;;;;;;;5.30;3.13;;;7.10;99.90;;;;;;5034260;28;20178;-83
2023/10/20 08:19:55;;;;;;;4.47;2.77;;;7.20;99.90;;;;;;5035401;28;20177;-85
2023/10/20 08:22:21;;;;;;;3.77;2.30;;;7.20;99.90;;;;;;5014648;28;20179;-87
2023/10/20 08:24:47;;;;;;;4.53;2.63;;;7.20;99.90;;;;;;5014433;28;20191;-86
2023/10/20 08:27:14;;;;;;;4.43;2.67;;;7.20;99.90;;;;;;5015373;28;20224;-83
2023/10/20 08:29:39;;;;;;;3.67;2.30;;;7.20;99.90;;;;;;5034962;28;20167;-84
2023/10/20 08:32:10;;;;;;;10.27;2.83;;;7.10;99.90;;;;;;5034112;28;20189;-86
2023/10/20 08:34:36;;;;;;;9.80;2.83;;;7.10;99.90;;;;;;5014516;28;20182;-82
2023/10/20 08:37:02;;;;;;;5.00;2.73;;;7.10;99.90;;;;;;5030850;28;20199;-85
2023/10/20 08:39:28;;;;;;;7.27;2.60;;;7.10;99.90;;;;;;5015351;28;20212;-83
2023/10/20 08:41:56;;;;;;;6.30;2.20;;;7.10;99.90;;;;;;5014249;28;20308;-84
2023/10/20 08:44:22;;;;;;;3.87;2.60;;;7.10;99.90;;;;;;5015407;28;20219;-87
2023/10/20 08:46:51;;;;;;;4.43;2.47;;;7.20;99.90;;;;;;5014091;28;20221;-88
2023/10/20 08:49:18;;;;;;;5.90;2.60;;;7.10;99.90;;;;;;5014403;28;20181;-88
2023/10/20 08:51:52;;;;;;;5.90;2.37;;;7.20;99.90;;;;;;5025848;28;20186;-89
2023/10/20 08:54:20;;;;;;;2.90;2.30;;;7.10;99.90;;;;;;5034263;28;20182;-86
2023/10/20 08:56:45;;;;;;;3.53;2.30;;;7.10;99.90;;;;;;5033682;28;20235;-86
2023/10/20 08:59:11;;;;;;;3.37;2.00;;;7.10;99.90;;;;;;5033702;28;20622;-83
2023/10/20 09:01:38;;;;;;;4.40;2.40;;;7.10;99.90;;;;;;5034978;28;20182;-86
2023/10/20 09:04:04;;;;;;;3.30;2.23;;;7.10;99.90;;;;;;5033765;28;20214;-87
2023/10/20 09:06:30;;;;;;;7.50;2.37;;;7.00;99.90;;;;;;5033624;28;20214;-84
2023/10/20 09:08:57;;;;;;;6.30;2.50;;;7.00;99.90;;;;;;5033674;28;20253;-82
2023/10/20 09:11:32;;;;;;;4.17;2.50;;;7.00;99.90;;;;;;5033464;28;20190;-85
2023/10/20 09:13:59;;;;;;;4.63;2.70;;;7.00;99.90;;;;;;5033695;28;20257;-86
2023/10/20 09:16:26;;;;;;;3.70;2.43;;;7.00;99.90;;;;;;5033544;28;20274;-83
2023/10/20 09:18:53;;;;;;;3.07;2.13;;;7.00;99.90;;;;;;5033698;28;20186;-88
2023/10/20 09:21:21;;;;;;;3.43;2.40;;;7.00;99.90;;;;;;5033802;28;20186;-85
2023/10/20 09:24:14;;;;;;;4.70;2.23;;;7.00;99.90;;;;;;5036709;28;20183;-88
2023/10/20 09:26:40;;;;;;;7.23;2.47;;;7.00;99.90;;;;;;5034034;28;20272;-86
2023/10/20 09:29:07;;;;;;;4.10;2.40;;;6.90;99.90;;;;;;5036796;28;20182;-85
2023/10/20 09:31:46;;;;;;;3.47;2.20;;;7.00;99.90;;;;;;5017662;28;20179;-82
2023/10/20 09:34:12;;;;;;;6.80;2.40;;;6.90;99.90;;;;;;5017525;28;20171;-88
2023/10/20 09:36:44;;;;;;;2.80;2.00;;;7.00;99.90;;;;;;5017371;28;20693;-83
2023/10/20 09:39:16;;;;;;;3.57;2.40;;;6.90;99.90;;;;;;5017530;28;20205;-87
2023/10/20 09:41:50;;;;;;;3.77;2.20;;;6.90;99.90;;;;;;5020044;28;20179;-83
2023/10/20 09:44:24;;;;;;;9.90;2.50;;;6.90;99.90;;;;;;5038138;28;20205;-84
2023/10/20 09:47:07;;;;;;;6.13;2.53;;;6.90;99.90;;;;;;5038527;28;20225;-85
2023/10/20 09:49:35;;;;;;;10.97;2.53;;;6.90;99.90;;;;;;5037094;28;20296;-84
2023/10/20 09:52:01;;;;;;;6.17;2.50;;;6.90;99.90;;;;;;5017941;28;20179;-82
2023/10/20 09:54:30;;;;;;;3.17;2.33;;;6.90;99.90;;;;;;5017124;28;20167;-87
2023/10/20 09:56:56;;;;;;;8.17;2.53;;;6.90;99.90;;;;;;5016737;28;20176;-86
2023/10/20 09:59:26;;;;;;;4.43;2.10;;;6.90;99.90;;;;;;5035324;28;20194;-85
2023/10/20 10:02:06;;;;;;;3.27;2.00;;;6.90;99.90;;;;;;5036751;28;20577;-89
2023/10/20 10:04:36;;;;;;;3.47;2.27;;;6.90;99.90;;;;;;5037950;28;20170;-87
2023/10/20 10:07:04;;;;;;;4.47;2.40;;;6.90;99.90;;;;;;5036789;28;20182;-88
2023/10/20 10:09:49;;;;;;;3.60;1.90;;;6.90;99.90;;;;;;5036563;28;20182;-86
2023/10/20 10:12:20;;;;;;;3.27;2.00;;;6.90;99.90;;;;;;5036640;28;20182;-85
2023/10/20 10:15:14;;;;;;;4.50;2.23;;;6.90;99.90;;;;;;5036484;28;20213;-89
2023/10/20 10:17:47;;;;;;;3.50;2.00;;;6.80;99.90;;;;;;5037721;28;20162;-87
2023/10/20 10:20:26;;;;;;;3.30;2.20;;;6.90;99.90;;;;;;5036544;28;20669;-87
2023/10/20 10:23:04;;;;;;;3.60;2.50;;;6.90;99.90;;;;;;5036375;28;20629;-87
2023/10/20 10:25:46;;;;;;;3.73;2.53;;;6.90;99.90;;;;;;5037736;28;20198;-82
2023/10/20 10:28:16;;;;;;;3.60;2.03;;;6.90;99.90;;;;;;5036279;28;20668;-88
2023/10/20 10:30:45;;;;;;;2.80;1.80;;;6.90;99.90;;;;;;5037442;28;20158;-88
2023/10/20 10:33:12;;;;;;;8.53;2.90;;;6.80;99.90;;;;;;5035654;28;20179;-86
2023/10/20 10:35:39;;;;;;;4.47;2.10;;;6.90;99.90;;;;;;5035425;28;20190;-85
2023/10/20 10:38:08;;;;;;;3.43;2.07;;;6.80;99.90;;;;;;5036075;28;20228;-85
2023/10/20 10:40:34;;;;;;;10.67;2.47;;;6.80;99.90;;;;;;5036095;28;20517;-83
2023/10/20 10:43:05;;;;;;;1.83;1.50;;;6.80;99.90;;;;;;5036101;28;20245;-82
2023/10/20 10:45:31;;;;;;;3.00;1.80;;;6.80;99.90;;;;;;5035887;28;20205;-85
2023/10/20 10:48:10;;;;;;;2.70;2.03;;;6.80;99.90;;;;;;5037405;28;20182;-85
2023/10/20 10:50:38;;;;;;;2.83;1.97;;;6.80;99.90;;;;;;5035785;28;20232;-85
2023/10/20 10:53:04;;;;;;;3.80;1.80;;;6.80;99.90;;;;;;5035832;28;20637;-88
2023/10/20 10:55:31;;;;;;;7.27;1.80;;;6.80;99.90;;;;;;5035605;28;20175;-83
2023/10/20 10:58:00;;;;;;;3.83;1.57;;;6.80;99.90;;;;;;5035706;28;20626;-83
2023/10/20 11:00:27;;;;;;;3.30;1.70;;;6.70;99.90;;;;;;5035155;28;20657;-85
2023/10/20 11:03:03;;;;;;;8.33;2.40;;;6.80;99.90;;;;;;5035587;28;20499;-86
2023/10/20 11:05:29;;;;;;;8.97;2.40;;;6.80;99.90;;;;;;5035870;28;20202;-85
2023/10/20 11:07:56;;;;;;;17.67;3.83;;;6.80;99.90;;;;;;5035428;28;20229;-89
2023/10/20 11:10:26;;;;;;;2.03;1.53;;;6.80;99.90;;;;;;5036597;28;20232;-88
2023/10/20 11:12:57;;;;;;;1.90;1.50;;;6.80;99.90;;;;;;5035432;28;20610;-84
2023/10/20 11:15:28;;;;;;;2.20;1.77;;;6.80;99.90;;;;;;5036280;28;20501;-88
2023/10/20 11:17:57;;;;;;;2.13;1.50;;;6.80;99.90;;;;;;5035511;28;20277;-91
2023/10/20 11:20:23;;;;;;;1.60;1.50;;;6.80;99.90;;;;;;5027657;28;20207;-81
2023/10/20 11:23:00;;;;;;;1.67;1.30;;;6.70;99.90;;;;;;5015408;28;20167;-88
2023/10/20 11:25:26;;;;;;;1.80;1.10;;;6.80;99.90;;;;;;5016384;28;20531;-82
2023/10/20 11:27:56;;;;;;;1.30;1.20;;;6.80;99.90;;;;;;5021770;28;20186;-84
2023/10/20 11:30:27;;;;;;;1.70;1.20;;;6.80;99.90;;;;;;5034872;28;20187;-85
2023/10/20 11:32:55;;;;;;;4.80;1.70;;;6.70;99.90;;;;;;5035020;28;20179;-84
2023/10/20 11:35:24;;;;;;;2.90;1.40;;;6.80;99.90;;;;;;5034916;28;20678;-85
2023/10/20 11:38:00;;;;;;;11.40;2.97;;;6.80;99.90;;;;;;5034786;28;20175;-83
2023/10/20 11:40:26;;;;;;;35.87;3.10;;;6.80;99.90;;;;;;5035175;28;20185;-85
2023/10/20 11:42:57;;;;;;;23.17;2.43;;;6.80;99.90;;;;;;5035070;28;20190;-86
2023/10/20 11:45:22;;;;;;;22.37;3.23;;;6.80;99.90;;;;;;5035262;28;20198;-86
2023/10/20 11:47:48;;;;;;;1.80;1.20;;;6.80;99.90;;;;;;5034444;28;20182;-81
2023/10/20 11:50:15;;;;;;;7.33;1.43;;;6.80;99.90;;;;;;5035704;28;20174;-81
2023/10/20 11:52:42;;;;;;;1.00;0.87;;;6.70;99.90;;;;;;5024255;28;20175;-84
2023/10/20 11:55:09;;;;;;;1.17;0.80;;;6.70;99.90;;;;;;5034180;28;20188;-85
2023/10/20 11:57:35;;;;;;;2.73;1.20;;;6.60;99.90;;;;;;5035653;28;20237;-82
2023/10/20 12:00:07;;;;;;;1.20;1.07;;;6.60;99.90;;;;;;5020338;28;20632;-84
2023/10/20 12:02:40;;;;;;;1.80;1.13;;;6.60;99.90;;;;;;5016150;28;20155;-85
2023/10/20 12:05:07;;;;;;;5.60;1.00;;;6.70;99.90;;;;;;5014844;28;20202;-87
2023/10/20 12:07:33;;;;;;;5.97;1.60;;;6.60;99.90;;;;;;5014382;28;20202;-84
2023/10/20 12:09:59;;;;;;;2.93;1.10;;;6.60;99.90;;;;;;5014320;28;20186;-80
2023/10/20 12:12:25;;;;;;;5.47;1.10;;;6.60;99.90;;;;;;5015712;28;20176;-82
2023/10/20 12:14:58;;;;;;;2.60;1.00;;;6.60;99.90;;;;;;5014498;28;20202;-82
2023/10/20 12:17:24;;;;;;;1.13;0.93;;;6.60;99.90;;;;;;5035110;28;20173;-83
2023/10/20 12:19:50;;;;;;;0.87;0.73;;;6.60;99.90;;;;;;5018367;28;20219;-83
2023/10/20 12:22:17;;;;;;;4.13;1.20;;;6.60;99.90;;;;;;5034044;28;20228;-82
2023/10/20 12:24:43;;;;;;;0.97;0.87;;;6.60;99.90;;;;;;5033800;28;20269;-81
2023/10/20 12:27:09;;;;;;;1.43;1.20;;;6.60;99.90;;;;;;5033689;28;20257;-83
2023/10/20 12:29:36;;;;;;;1.33;1.00;;;6.50;99.90;;;;;;5033672;28;20329;-83
2023/10/20 12:32:03;;;;;;;1.10;1.00;;;6.60;99.90;;;;;;5034222;28;20178;-81
2023/10/20 12:34:31;;;;;;;1.23;1.00;;;6.50;99.90;;;;;;5033885;28;20237;-85
2023/10/20 12:36:59;;;;;;;1.43;1.00;;;6.60;99.90;;;;;;5034452;28;20189;-81
2023/10/20 12:39:27;;;;;;;1.40;0.90;;;6.60;99.90;;;;;;5013692;28;20187;-80
2023/10/20 12:41:54;;;;;;;1.10;1.00;;;6.60;99.90;;;;;;5015381;28;20179;-84
2023/10/20 12:44:20;;;;;;;1.47;1.10;;;6.60;99.90;;;;;;5042830;28;20191;-81
2023/10/20 12:46:46;;;;;;;0.80;0.70;;;6.60;99.90;;;;;;5033740;28;20691;-82
2023/10/20 12:49:12;;;;;;;1.13;1.03;;;6.60;99.90;;;;;;5021664;28;20187;-83
2023/10/20 12:51:40;;;;;;;2.03;1.43;;;6.60;99.90;;;;;;5013822;28;20273;-85
2023/10/20 12:54:05;;;;;;;1.10;1.00;;;6.50;99.90;;;;;;5021362;28;20178;-83
2023/10/20 12:56:31;;;;;;;1.30;1.10;;;6.50;99.90;;;;;;5033539;28;20516;-84
2023/10/20 12:58:57;;;;;;;2.00;0.97;;;6.50;99.90;;;;;;5052853;28;20249;-86
2023/10/20 13:01:23;;;;;;;0.83;0.70;;;6.60;99.90;;;;;;5038506;28;20174;-81
2023/10/20 13:03:49;;;;;;;1.03;0.93;;;6.60;99.90;;;;;;5037514;28;20189;-82
2023/10/20 13:06:15;;;;;;;1.30;1.07;;;6.50;99.90;;;;;;5037589;28;20225;-82
2023/10/20 13:08:43;;;;;;;1.10;0.87;;;6.50;99.90;;;;;;5038215;28;20186;-81
2023/10/20 13:11:10;;;;;;;1.03;0.90;;;6.50;99.90;;;;;;5036039;28;20222;-79
2023/10/20 13:13:36;;;;;;;1.53;0.80;;;6.50;99.90;;;;;;5038177;28;20170;-82
2023/10/20 13:16:02;;;;;;;1.70;1.10;;;6.50;99.90;;;;;;5036937;28;20189;-84
2023/10/20 13:18:28;;;;;;;2.47;1.00;;;6.50;99.90;;;;;;5036802;28;20217;-83
2023/10/20 13:20:55;;;;;;;1.33;1.00;;;6.50;99.90;;;;;;5038162;28;20206;-84
2023/10/20 13:23:22;;;;;;;1.90;0.77;;;6.50;99.90;;;;;;5036959;28;20232;-82
2023/10/20 13:25:48;;;;;;;1.93;1.00;;;6.50;99.90;;;;;;5036687;28;20229;-84